Time;durP1;ratioP1;P1;durP2;ratioP2;P2;SDS_P1;SDS_P2;PMS_P1;PMS_P2;Temp;Humidity;BMP_temperature;BMP_pressure;BME280_temperature;BME280_humidity;BME280_pressure;Samples;Min_cycle;Max_cycle;Signal;HPM_P1;HPM_P2
2022/04/04 00:00:58;;;;;;;5.68;3.35;;;;;;;-0.23;65.60;100801.25;5570573;32;34136;-66
2022/04/04 00:04:01;;;;;;;7.00;3.65;;;;;;;-0.19;65.82;100805.34;5570483;32;33902;-66
2022/04/04 00:07:04;;;;;;;5.60;3.40;;;;;;;-0.24;66.96;100810.84;5556772;32;34581;-66
2022/04/04 00:10:07;;;;;;;8.68;4.50;;;;;;;-0.15;65.90;100812.09;5570472;32;33936;-66
2022/04/04 00:13:11;;;;;;;6.65;3.90;;;;;;;-0.22;66.24;100811.59;5556758;32;34067;-66
2022/04/04 00:16:14;;;;;;;8.35;3.92;;;;;;;-0.25;65.84;100803.97;5570529;32;34223;-67
2022/04/04 00:19:16;;;;;;;7.55;3.70;;;;;;;-0.24;66.06;100810.03;5570273;32;33909;-66
2022/04/04 00:22:20;;;;;;;7.50;3.67;;;;;;;-0.22;66.18;100810.75;5570069;32;33966;-66
2022/04/04 00:25:23;;;;;;;7.28;3.90;;;;;;;-0.28;65.12;100819.78;5570316;32;34628;-66
2022/04/04 00:28:25;;;;;;;7.53;3.78;;;;;;;-0.27;65.08;100824.06;5570255;32;34544;-66
2022/04/04 00:31:28;;;;;;;6.00;3.58;;;;;;;-0.20;65.82;100825.41;5569690;32;34013;-66
2022/04/04 00:34:31;;;;;;;6.28;3.60;;;;;;;-0.20;65.44;100825.41;5556723;32;34651;-66
2022/04/04 00:37:37;;;;;;;7.85;3.33;;;;;;;-0.24;65.42;100821.28;5556535;32;33857;-66
2022/04/04 00:40:41;;;;;;;5.25;3.30;;;;;;;-0.36;66.98;100818.53;5570538;32;33959;-66
2022/04/04 00:43:44;;;;;;;5.90;3.25;;;;;;;-0.32;65.11;100813.06;5556590;32;33969;-66
2022/04/04 00:46:47;;;;;;;4.95;3.30;;;;;;;-0.32;65.60;100817.44;5570155;32;34212;-66
2022/04/04 00:49:49;;;;;;;5.40;3.37;;;;;;;-0.33;65.17;100815.75;5556392;32;34100;-66
2022/04/04 00:52:52;;;;;;;5.78;3.12;;;;;;;-0.31;64.96;100808.69;5569966;32;34644;-66
2022/04/04 00:55:55;;;;;;;5.57;3.40;;;;;;;-0.29;64.81;100812.87;5570111;32;33948;-66
2022/04/04 00:58:59;;;;;;;6.60;3.70;;;;;;;-0.31;65.23;100809.53;5570074;32;35300;-66
2022/04/04 01:02:02;;;;;;;6.60;3.62;;;;;;;-0.36;65.59;100808.12;5570020;32;33931;-66
2022/04/04 01:05:05;;;;;;;6.40;3.50;;;;;;;-0.29;65.16;100806.84;5569993;32;34017;-66
2022/04/04 01:08:08;;;;;;;8.23;3.90;;;;;;;-0.36;65.94;100806.34;5570096;32;33889;-66
2022/04/04 01:11:11;;;;;;;5.75;3.45;;;;;;;-0.34;65.87;100806.28;5569954;32;34585;-66
2022/04/04 01:14:14;;;;;;;7.25;3.75;;;;;;;-0.39;66.29;100813.50;5570237;32;34041;-66
2022/04/04 01:17:19;;;;;;;6.53;3.50;;;;;;;-0.46;66.14;100808.66;5569698;32;34203;-66
2022/04/04 01:20:22;;;;;;;5.62;3.20;;;;;;;-0.39;66.34;100813.50;5570151;32;34654;-66
2022/04/04 01:23:25;;;;;;;6.10;3.28;;;;;;;-0.40;66.33;100817.03;5569864;32;33977;-66
2022/04/04 01:26:28;;;;;;;6.15;3.50;;;;;;;-0.45;66.24;100817.31;5569831;32;33909;-66
2022/04/04 01:29:31;;;;;;;5.90;3.42;;;;;;;-0.41;66.51;100818.81;5569636;32;34399;-66
2022/04/04 01:32:34;;;;;;;6.65;3.62;;;;;;;-0.44;66.54;100824.22;5569741;32;33978;-66
2022/04/04 01:35:38;;;;;;;6.87;3.25;;;;;;;-0.39;66.71;100819.56;5570069;32;34026;-66
2022/04/04 01:38:40;;;;;;;6.05;3.50;;;;;;;-0.46;66.65;100813.00;5569533;32;33989;-66
2022/04/04 01:41:44;;;;;;;6.20;3.35;;;;;;;-0.47;67.02;100813.94;5569009;32;34567;-66
2022/04/04 01:44:47;;;;;;;5.78;3.53;;;;;;;-0.47;66.22;100824.34;5555319;32;33983;-66
2022/04/04 01:47:51;;;;;;;7.40;3.40;;;;;;;-0.50;66.52;100819.34;5569327;32;34189;-66
2022/04/04 01:50:53;;;;;;;4.97;3.03;;;;;;;-0.54;67.09;100821.28;5569369;32;33952;-66
2022/04/04 01:53:57;;;;;;;5.85;3.37;;;;;;;-0.49;66.47;100828.84;5569324;32;33937;-66
2022/04/04 01:57:02;;;;;;;7.18;3.65;;;;;;;-0.69;66.05;100831.72;5569210;32;34025;-66
2022/04/04 02:00:05;;;;;;;6.25;3.35;;;;;;;-0.71;68.13;100823.13;5555609;32;34113;-66
2022/04/04 02:03:14;;;;;;;6.18;3.25;;;;;;;-0.70;68.08;100828.25;5569253;32;35164;-66
2022/04/04 02:06:18;;;;;;;7.30;3.28;;;;;;;-0.70;67.22;100822.22;5569511;32;34443;-66
2022/04/04 02:09:20;;;;;;;5.15;3.40;;;;;;;-0.68;67.17;100828.19;5569005;32;33998;-66
2022/04/04 02:12:23;;;;;;;8.48;3.70;;;;;;;-0.74;68.22;100831.13;5569038;32;34591;-66
2022/04/04 02:15:26;;;;;;;6.62;3.50;;;;;;;-0.77;68.27;100832.12;5569396;32;34059;-66
2022/04/04 02:18:31;;;;;;;8.38;3.78;;;;;;;-0.76;68.54;100827.75;5568932;32;34068;-66
2022/04/04 02:21:33;;;;;;;7.72;4.12;;;;;;;-0.80;68.24;100824.50;5568840;32;34008;-66
2022/04/04 02:24:36;;;;;;;6.78;4.20;;;;;;;-0.84;69.16;100822.12;5568770;32;34611;-66
2022/04/04 02:27:38;;;;;;;8.10;3.85;;;;;;;-0.86;69.43;100822.22;5569102;32;33972;-66
2022/04/04 02:30:43;;;;;;;7.75;4.43;;;;;;;-0.88;69.36;100822.31;5564551;32;131113;-66
2022/04/04 02:33:45;;;;;;;6.87;3.92;;;;;;;-0.97;69.30;100821.97;5568760;32;33910;-66
2022/04/04 02:36:48;;;;;;;7.00;4.20;;;;;;;-0.99;69.25;100824.66;5555375;32;33899;-66
2022/04/04 02:39:51;;;;;;;6.20;3.95;;;;;;;-0.99;69.83;100818.62;5568898;32;34016;-66
2022/04/04 02:42:54;;;;;;;8.48;4.18;;;;;;;-0.98;69.07;100831.56;5568821;32;34561;-66
2022/04/04 02:45:57;;;;;;;10.77;4.10;;;;;;;-1.07;71.87;100834.66;5568513;32;34524;-66
2022/04/04 02:49:00;;;;;;;6.85;4.32;;;;;;;-1.01;70.23;100834.31;5568210;32;34835;-66
2022/04/04 02:52:02;;;;;;;6.72;4.30;;;;;;;-0.98;69.15;100828.09;5568433;32;33913;-66
2022/04/04 02:58:28;;;;;;;7.97;4.57;;;;;;;-1.01;69.82;100839.50;5571133;32;33937;-66
2022/04/04 03:01:31;;;;;;;6.10;4.07;;;;;;;-1.01;68.89;100834.31;5571051;32;33923;-66
2022/04/04 03:04:35;;;;;;;9.05;4.85;;;;;;;-1.04;70.58;100831.03;5571028;32;34157;-66
2022/04/04 03:07:37;;;;;;;9.93;4.47;;;;;;;-1.03;69.41;100840.53;5570997;32;34145;-66
2022/04/04 03:10:40;;;;;;;6.35;4.03;;;;;;;-0.91;68.54;100839.84;5571020;32;33853;-66
2022/04/04 03:13:43;;;;;;;7.68;4.15;;;;;;;-0.94;69.25;100832.22;5570931;32;33970;-66
2022/04/04 03:16:45;;;;;;;7.97;4.62;;;;;;;-0.96;68.65;100836.66;5570940;32;33978;-66
2022/04/04 03:19:48;;;;;;;8.02;4.07;;;;;;;-0.99;68.60;100832.47;5570871;32;34359;-66
2022/04/04 03:22:54;;;;;;;6.45;4.07;;;;;;;-0.98;69.16;100841.13;5571113;32;34124;-66
2022/04/04 03:25:57;;;;;;;7.07;4.50;;;;;;;-1.00;68.89;100843.81;5570726;32;34636;-66
2022/04/04 03:28:59;;;;;;;8.52;4.62;;;;;;;-1.04;69.77;100842.31;5571004;32;34621;-66
2022/04/04 03:32:02;;;;;;;10.65;4.62;;;;;;;-1.04;70.41;100846.66;5570732;32;35161;-66
2022/04/04 03:35:06;;;;;;;7.80;4.22;;;;;;;-1.08;70.16;100843.41;5570800;32;33928;-66
2022/04/04 03:38:13;;;;;;;7.15;4.03;;;;;;;-1.10;69.15;100842.62;5570614;32;33853;-66
2022/04/04 03:41:16;;;;;;;9.32;4.90;;;;;;;-1.17;70.72;100848.25;5570811;32;34225;-66
2022/04/04 03:44:19;;;;;;;6.22;3.85;;;;;;;-1.23;72.73;100852.00;5570736;32;34594;-66
2022/04/04 03:47:22;;;;;;;9.55;4.00;;;;;;;-1.31;73.71;100854.19;5570555;32;34388;-66
2022/04/04 03:50:27;;;;;;;6.85;3.70;;;;;;;-1.38;71.29;100847.63;5570162;32;35452;-66
2022/04/04 03:53:29;;;;;;;8.70;4.30;;;;;;;-1.38;71.59;100848.47;5570511;32;34598;-66
2022/04/04 03:56:32;;;;;;;6.45;4.03;;;;;;;-1.35;71.75;100853.50;5570288;32;34251;-66
2022/04/04 03:59:39;;;;;;;8.05;4.10;;;;;;;-1.26;70.97;100854.78;5570375;32;34078;-66
2022/04/04 04:02:42;;;;;;;6.87;4.18;;;;;;;-1.17;71.02;100845.66;5570604;32;34573;-66
2022/04/04 04:05:47;;;;;;;8.65;4.68;;;;;;;-1.09;69.89;100859.94;5569959;32;33988;-66
2022/04/04 04:08:49;;;;;;;8.57;4.97;;;;;;;-1.07;70.02;100865.06;5570794;32;34193;-66
2022/04/04 04:11:54;;;;;;;10.05;4.50;;;;;;;-1.12;70.88;100867.91;5570695;32;33892;-66
2022/04/04 04:14:57;;;;;;;6.30;3.92;;;;;;;-1.14;69.17;100864.53;5570439;32;34168;-66
2022/04/04 04:18:00;;;;;;;8.45;4.28;;;;;;;-1.25;70.42;100864.25;5570298;32;34430;-66
2022/04/04 04:21:03;;;;;;;6.90;4.60;;;;;;;-1.35;70.70;100869.09;5570232;32;34213;-66
2022/04/04 04:24:06;;;;;;;8.02;4.00;;;;;;;-1.32;72.04;100863.75;5570429;32;34299;-66
2022/04/04 04:27:09;;;;;;;8.00;4.68;;;;;;;-1.40;71.63;100867.66;5570302;32;34598;-65
2022/04/04 04:30:13;;;;;;;9.30;4.85;;;;;;;-1.47;77.06;100866.31;5570506;32;33995;-66
2022/04/04 04:33:16;;;;;;;8.45;4.60;;;;;;;-1.81;76.48;100869.81;5570318;32;33892;-66
2022/04/04 04:36:19;;;;;;;8.50;3.78;;;;;;;-1.68;75.01;100864.81;5570596;32;34097;-66
2022/04/04 04:39:22;;;;;;;5.90;4.10;;;;;;;-1.89;75.77;100864.16;5570484;32;33926;-66
2022/04/04 04:42:25;;;;;;;7.95;4.68;;;;;;;-2.02;76.90;100868.28;5570357;32;33992;-66
2022/04/04 04:45:28;;;;;;;10.10;4.07;;;;;;;-1.83;75.66;100871.63;5570256;32;33888;-66
2022/04/04 04:48:31;;;;;;;9.40;4.60;;;;;;;-1.54;74.08;100868.38;5570156;32;34652;-66
2022/04/04 04:51:34;;;;;;;9.93;4.53;;;;;;;-1.37;73.48;100875.34;5570137;32;34764;-66
2022/04/04 04:54:37;;;;;;;8.18;4.57;;;;;;;-1.35;74.46;100879.53;5570175;32;34069;-66
2022/04/04 04:57:40;;;;;;;6.80;3.97;;;;;;;-1.35;73.20;100874.31;5569952;32;34147;-66
2022/04/04 05:00:43;;;;;;;9.10;4.43;;;;;;;-1.16;72.55;100878.56;5569889;32;34643;-66
2022/04/04 05:03:45;;;;;;;8.73;4.22;;;;;;;-1.03;70.28;100877.00;5556089;32;34154;-66
2022/04/04 05:06:49;;;;;;;5.97;4.15;;;;;;;-0.93;70.57;100881.63;5569773;32;34586;-66
2022/04/04 05:09:52;;;;;;;7.45;4.20;;;;;;;-0.79;68.07;100883.47;5556199;32;33885;-66
2022/04/04 05:12:56;;;;;;;8.13;4.25;;;;;;;-0.69;68.46;100876.84;5556181;32;33886;-66
2022/04/04 05:15:59;;;;;;;9.95;3.87;;;;;;;-0.53;67.98;100884.63;5569743;32;34036;-66
2022/04/04 05:19:03;;;;;;;6.72;3.90;;;;;;;-0.45;66.89;100888.53;5569875;32;33784;-66
2022/04/04 05:22:05;;;;;;;9.57;3.97;;;;;;;-0.16;66.58;100894.69;5569948;32;34564;-66
2022/04/04 05:25:08;;;;;;;6.43;3.97;;;;;;;-0.10;65.99;100896.12;5569551;32;34029;-66
2022/04/04 05:28:11;;;;;;;8.02;4.40;;;;;;;0.03;66.46;100899.69;5569640;32;33949;-66
2022/04/04 05:31:14;;;;;;;7.60;4.07;;;;;;;0.17;66.03;100888.47;5569939;32;33981;-65
2022/04/04 05:34:17;;;;;;;9.05;4.65;;;;;;;0.20;65.75;100889.13;5569484;32;34151;-66
2022/04/04 05:37:20;;;;;;;8.15;4.70;;;;;;;0.24;65.75;100895.03;5569116;32;33928;-66
2022/04/04 05:40:24;;;;;;;8.98;4.90;;;;;;;0.32;64.81;100898.00;5569283;32;34948;-66
2022/04/04 05:43:28;;;;;;;7.20;4.37;;;;;;;0.39;65.22;100907.13;5555694;32;35143;-66
2022/04/04 05:46:31;;;;;;;7.57;4.82;;;;;;;0.48;65.03;100906.62;5569042;32;34920;-66
2022/04/04 05:49:34;;;;;;;9.60;5.03;;;;;;;0.58;65.45;100909.53;5570186;32;33908;-65
2022/04/04 05:52:37;;;;;;;8.57;4.47;;;;;;;0.73;64.25;100913.81;5568680;32;34837;-65
2022/04/04 05:55:40;;;;;;;9.82;5.55;;;;;;;0.79;63.35;100914.28;5569420;32;34612;-66
2022/04/04 05:58:43;;;;;;;10.98;4.80;;;;;;;0.90;61.99;100908.41;5569193;32;33987;-66
2022/04/04 06:01:45;;;;;;;9.45;4.50;;;;;;;1.01;62.13;100913.00;5569045;32;34050;-66
2022/04/04 06:04:49;;;;;;;8.60;5.05;;;;;;;1.12;61.45;100913.16;5568595;32;33897;-66
2022/04/04 06:07:52;;;;;;;9.32;4.75;;;;;;;1.30;61.71;100912.03;5569425;32;33981;-66
2022/04/04 06:10:55;;;;;;;9.02;4.68;;;;;;;1.52;60.77;100922.81;5568857;32;35152;-66
2022/04/04 06:13:58;;;;;;;8.75;4.80;;;;;;;1.64;61.18;100915.97;5568884;32;34361;-66
2022/04/04 06:17:05;;;;;;;7.72;4.62;;;;;;;1.61;60.67;100914.38;5568652;32;34404;-66
2022/04/04 06:20:08;;;;;;;8.63;4.45;;;;;;;1.76;59.72;100909.94;5554881;32;35276;-66
2022/04/04 06:23:12;;;;;;;7.65;4.30;;;;;;;1.91;59.15;100926.44;5568449;32;34092;-66
2022/04/04 06:26:15;;;;;;;7.70;4.43;;;;;;;2.16;58.28;100929.13;5568508;32;34016;-65
2022/04/04 06:29:18;;;;;;;7.57;4.10;;;;;;;2.37;56.92;100926.88;5568963;32;34300;-66
2022/04/04 06:32:24;;;;;;;6.50;3.97;;;;;;;2.52;55.49;100928.44;5570981;32;34440;-66
2022/04/04 06:35:28;;;;;;;7.32;3.70;;;;;;;2.67;54.87;100935.28;5571000;32;33987;-66
2022/04/04 06:38:30;;;;;;;4.85;3.50;;;;;;;2.94;53.17;100929.94;5570853;32;35170;-66
2022/04/04 06:41:33;;;;;;;6.35;3.50;;;;;;;2.88;52.85;100932.97;5570685;32;34344;-66
2022/04/04 06:44:36;;;;;;;7.65;3.30;;;;;;;4.15;49.16;100925.59;5570722;32;33859;-66
2022/04/04 06:47:39;;;;;;;10.55;3.60;;;;;;;4.65;47.55;100929.69;5571084;32;33987;-66
2022/04/04 06:50:42;;;;;;;5.95;3.33;;;;;;;4.90;46.29;100939.16;5570759;32;34061;-66
2022/04/04 06:53:46;;;;;;;7.05;3.37;;;;;;;4.97;45.27;100933.31;5556872;32;35217;-66
2022/04/04 06:56:49;;;;;;;7.80;3.42;;;;;;;4.82;46.11;100935.34;5570872;32;34026;-66
2022/04/04 06:59:52;;;;;;;7.87;4.00;;;;;;;5.31;44.61;100947.31;5570598;32;34776;-66
2022/04/04 07:02:55;;;;;;;4.05;2.92;;;;;;;5.67;43.63;100941.75;5570651;32;33885;-67
2022/04/04 07:05:59;;;;;;;6.03;3.15;;;;;;;5.65;43.20;100948.97;5571358;32;34016;-65
2022/04/04 07:09:02;;;;;;;9.02;3.40;;;;;;;6.42;41.30;100949.69;5570255;32;34373;-66
2022/04/04 07:12:05;;;;;;;7.53;2.90;;;;;;;6.40;41.23;100945.50;5570617;32;33963;-66
2022/04/04 07:15:10;;;;;;;5.25;3.20;;;;;;;6.02;41.46;100944.22;5570712;32;35173;-67
2022/04/04 07:18:13;;;;;;;6.25;2.97;;;;;;;6.64;41.33;100945.25;5571165;32;33947;-65
2022/04/04 07:21:16;;;;;;;5.75;3.40;;;;;;;6.01;40.65;100944.34;5570761;32;33968;-65
2022/04/04 07:24:19;;;;;;;8.90;3.08;;;;;;;6.10;41.30;100946.22;5570705;32;34853;-66
2022/04/04 07:27:22;;;;;;;5.87;3.20;;;;;;;6.52;39.69;100939.22;5570875;32;33906;-65
2022/04/04 07:30:26;;;;;;;7.07;3.50;;;;;;;7.04;39.46;100940.06;5570347;32;34602;-65
2022/04/04 07:33:29;;;;;;;5.78;3.37;;;;;;;8.14;37.09;100938.16;5570689;32;34098;-65
2022/04/04 07:36:32;;;;;;;5.93;3.60;;;;;;;9.11;35.44;100942.34;5557114;32;33983;-66
2022/04/04 07:39:35;;;;;;;6.68;3.92;;;;;;;7.93;36.86;100939.25;5570329;32;34023;-67
2022/04/04 07:42:39;;;;;;;5.78;3.22;;;;;;;9.05;34.78;100936.81;5569955;32;33941;-66
2022/04/04 07:45:42;;;;;;;4.57;2.50;;;;;;;9.73;31.79;100946.09;5570775;32;34664;-67
2022/04/04 07:48:46;;;;;;;7.30;3.17;;;;;;;8.95;30.70;100939.50;5570387;31;34002;-65
2022/04/04 07:51:49;;;;;;;4.72;2.80;;;;;;;7.87;32.92;100933.56;5570315;32;33954;-66
2022/04/04 07:54:56;;;;;;;6.93;2.47;;;;;;;7.64;34.23;100940.03;5570220;32;34328;-65
2022/04/04 07:57:59;;;;;;;4.00;2.00;;;;;;;9.23;29.98;100932.44;5569788;32;34186;-65
2022/04/04 08:01:07;;;;;;;2.60;1.95;;;;;;;9.02;28.71;100934.44;5570760;32;34026;-65
2022/04/04 08:04:12;;;;;;;4.70;2.30;;;;;;;7.73;31.26;100928.66;5570512;32;35253;-65
2022/04/04 08:07:15;;;;;;;5.28;2.45;;;;;;;8.94;30.61;100937.81;5556571;32;34012;-65
2022/04/04 08:10:18;;;;;;;4.82;2.40;;;;;;;7.83;32.17;100926.03;5570381;32;33971;-66
2022/04/04 08:13:21;;;;;;;3.55;2.15;;;;;;;9.42;29.04;100912.97;5557054;32;33920;-67
2022/04/04 08:16:26;;;;;;;3.75;2.50;;;;;;;9.14;30.69;100917.44;5570203;32;33947;-65
2022/04/04 08:19:30;;;;;;;4.10;2.40;;;;;;;8.14;32.42;100919.66;5570243;32;34103;-65
2022/04/04 08:22:38;;;;;;;3.47;2.30;;;;;;;9.09;32.15;100915.22;5570595;32;34486;-65
2022/04/04 08:25:41;;;;;;;3.78;2.45;;;;;;;10.18;30.05;100922.25;5569849;32;34376;-66
2022/04/04 08:28:47;;;;;;;3.12;2.20;;;;;;;8.55;33.02;100917.72;5556544;31;34651;-66
2022/04/04 08:31:49;;;;;;;4.75;2.55;;;;;;;9.45;31.51;100915.31;5570196;32;34456;-66
2022/04/04 08:34:53;;;;;;;3.67;2.08;;;;;;;9.02;31.76;100916.75;5570112;32;34728;-64
2022/04/04 08:37:56;;;;;;;3.90;2.10;;;;;;;9.46;31.18;100919.63;5556332;32;34105;-67
2022/04/04 08:41:03;;;;;;;4.15;2.62;;;;;;;11.03;28.90;100902.16;5569732;32;34633;-66
2022/04/04 08:44:06;;;;;;;7.75;2.55;;;;;;;10.53;28.86;100899.34;5569741;32;34398;-66
2022/04/04 08:47:09;;;;;;;5.03;2.35;;;;;;;12.09;27.10;100906.84;5556172;32;34015;-66
2022/04/04 08:50:18;;;;;;;3.20;2.20;;;;;;;11.57;27.79;100890.25;5569848;32;33873;-67
2022/04/04 08:53:22;;;;;;;7.78;2.20;;;;;;;11.45;27.89;100889.72;5569872;32;33961;-67
2022/04/04 08:56:26;;;;;;;4.15;2.22;;;;;;;10.84;28.59;100876.66;5556171;32;34230;-67
2022/04/04 08:59:29;;;;;;;3.67;2.47;;;;;;;11.85;27.61;100878.41;5569743;32;34582;-66
2022/04/04 09:02:34;;;;;;;4.20;2.00;;;;;;;12.32;26.33;100873.25;5569978;32;34599;-66
2022/04/04 09:05:54;;;;;;;6.10;2.33;;;;;;;10.43;27.71;100875.56;5556543;32;34049;-66
2022/04/04 09:08:59;;;;;;;4.12;2.10;;;;;;;8.73;31.63;100873.69;5569808;32;34199;-67
2022/04/04 09:12:08;;;;;;;3.22;2.28;;;;;;;7.39;33.23;100859.53;5569759;32;34697;-67
2022/04/04 09:15:11;;;;;;;2.92;2.20;;;;;;;5.86;34.36;100858.66;5569836;32;34711;-68
2022/04/04 09:18:42;;;;;;;3.58;2.30;;;;;;;5.71;35.48;100854.66;5569902;32;34012;-67
2022/04/04 09:21:48;;;;;;;;;;;;;;;5.34;36.77;100862.88;5569907;32;34438;-67
2022/04/04 09:24:58;;;;;;;5.37;2.30;;;;;;;5.25;38.93;100848.69;5569730;32;35594;-66
2022/04/04 09:28:19;;;;;;;5.00;2.42;;;;;;;5.17;37.04;100851.09;5569329;32;34986;-67
2022/04/04 09:31:22;;;;;;;4.25;2.70;;;;;;;4.75;38.26;100850.00;5569340;31;34048;-66
2022/04/04 09:34:44;;;;;;;9.02;3.10;;;;;;;5.03;39.53;100842.62;5569916;32;34277;-66
2022/04/04 09:37:51;;;;;;;4.28;3.03;;;;;;;5.21;40.72;100846.41;5569504;32;34036;-66
2022/04/04 09:40:53;;;;;;;4.72;2.95;;;;;;;5.11;41.73;100829.69;5569614;32;34080;-66
2022/04/04 09:44:02;;;;;;;7.85;3.33;;;;;;;5.10;41.63;100823.59;5569471;32;33994;-66
2022/04/04 09:47:05;;;;;;;4.10;2.87;;;;;;;5.06;40.99;100827.44;5569275;32;33995;-66
2022/04/04 09:50:09;;;;;;;3.08;2.40;;;;;;;5.13;40.68;100814.62;5569126;32;33915;-66
2022/04/04 09:53:14;;;;;;;5.85;3.20;;;;;;;5.33;41.28;100815.63;5569320;32;33986;-66
2022/04/04 09:56:25;;;;;;;4.55;2.95;;;;;;;4.96;41.94;100809.87;5555208;32;34058;-65
2022/04/04 09:59:28;;;;;;;4.95;3.10;;;;;;;5.60;42.08;100802.91;5569258;32;34169;-66
2022/04/04 10:02:31;;;;;;;4.93;3.03;;;;;;;5.76;39.66;100789.31;5568983;32;34134;-66
2022/04/04 10:05:35;;;;;;;4.62;2.95;;;;;;;5.78;40.80;100780.31;5567942;32;33975;-66
2022/04/04 10:08:38;;;;;;;6.28;3.12;;;;;;;5.52;39.20;100787.72;5569170;32;35102;-67
2022/04/04 10:11:42;;;;;;;9.38;3.53;;;;;;;5.72;40.15;100790.50;5568821;32;33903;-67
2022/04/04 10:14:45;;;;;;;5.37;3.05;;;;;;;5.62;40.78;100778.09;5568796;32;35288;-66
2022/04/04 10:17:52;;;;;;;5.15;3.03;;;;;;;5.81;40.70;100772.16;5568847;32;34011;-66
2022/04/04 10:20:56;;;;;;;5.97;3.00;;;;;;;6.09;39.92;100778.63;5568660;32;33988;-66
2022/04/04 10:24:01;;;;;;;4.60;2.80;;;;;;;5.75;40.66;100767.41;5555193;32;34109;-66
2022/04/04 10:27:04;;;;;;;4.07;2.90;;;;;;;5.78;40.57;100755.78;5568914;32;34307;-66
2022/04/04 10:30:10;;;;;;;5.85;3.25;;;;;;;6.10;40.11;100759.19;5568204;32;34264;-66
2022/04/04 10:33:25;;;;;;;4.18;3.25;;;;;;;6.44;39.43;100760.62;5568551;32;34339;-66
2022/04/04 10:36:28;;;;;;;6.37;3.40;;;;;;;7.29;38.92;100753.09;5568854;32;34071;-66
2022/04/04 10:39:45;;;;;;;5.30;3.17;;;;;;;7.42;38.80;100751.03;5554877;32;34278;-66
2022/04/04 10:43:15;;;;;;;6.12;3.20;;;;;;;7.91;37.46;100746.53;5568236;32;34007;-67
2022/04/04 10:46:20;;;;;;;5.72;3.42;;;;;;;7.63;38.58;100736.84;5568759;32;34562;-67
2022/04/04 10:49:24;;;;;;;6.35;3.22;;;;;;;7.13;39.66;100731.69;5568085;32;33989;-66
2022/04/04 10:52:41;;;;;;;4.05;3.10;;;;;;;7.33;39.94;100725.47;5568265;32;34383;-67
2022/04/04 10:55:49;;;;;;;4.55;3.05;;;;;;;7.62;38.03;100728.09;5554950;32;34115;-67
2022/04/04 10:59:13;;;;;;;4.95;2.90;;;;;;;8.90;35.88;100726.59;5568102;32;34100;-66
2022/04/04 11:02:19;;;;;;;10.00;3.75;;;;;;;9.10;37.05;100730.78;5568008;32;34181;-66
2022/04/04 11:09:12;;;;;;;6.10;3.30;;;;;;;11.02;33.28;100706.69;5567925;32;34028;-67
2022/04/04 11:12:15;;;;;;;6.35;2.92;;;;;;;9.78;33.60;100712.53;5567748;32;34596;-66
2022/04/04 11:15:38;;;;;;;5.12;3.10;;;;;;;8.84;35.42;100706.00;5568599;32;33960;-65
2022/04/04 11:18:52;;;;;;;4.82;3.00;;;;;;;8.83;36.61;100707.81;5570717;32;33532;-67
2022/04/04 11:21:57;;;;;;;7.35;3.33;;;;;;;8.99;35.58;100709.81;5570605;32;35223;-67
2022/04/04 11:25:05;;;;;;;4.28;2.95;;;;;;;8.28;36.81;100701.66;5570535;32;34375;-66
2022/04/04 11:28:10;;;;;;;3.90;2.70;;;;;;;8.79;36.40;100698.53;5570599;32;34217;-67
2022/04/04 11:31:14;;;;;;;4.20;2.67;;;;;;;8.21;36.96;100690.84;5570437;32;34403;-66
2022/04/04 11:34:17;;;;;;;5.05;2.92;;;;;;;8.39;37.83;100701.50;5570685;32;34254;-65
2022/04/04 11:37:21;;;;;;;5.47;3.20;;;;;;;7.73;38.19;100693.63;5570937;32;34716;-66
2022/04/04 11:40:29;;;;;;;3.60;2.70;;;;;;;7.33;40.50;100698.22;5570538;32;34008;-66
2022/04/04 11:43:32;;;;;;;6.05;2.90;;;;;;;8.35;37.83;100686.09;5556827;32;34695;-67
2022/04/04 11:46:35;;;;;;;4.80;2.65;;;;;;;9.61;35.55;100687.72;5570722;32;33907;-67
2022/04/04 11:49:42;;;;;;;3.90;2.60;;;;;;;11.84;31.48;100674.69;5570424;32;33984;-67
2022/04/04 11:52:50;;;;;;;3.75;2.35;;;;;;;15.17;27.25;100669.09;5556916;32;34643;-66
2022/04/04 11:56:02;;;;;;;4.22;2.78;;;;;;;16.97;24.09;100673.59;5570787;32;33471;-66
2022/04/04 11:59:16;;;;;;;4.45;2.60;;;;;;;14.40;26.98;100668.00;5570240;32;33942;-68
2022/04/04 12:02:23;;;;;;;7.65;3.10;;;;;;;13.54;27.97;100665.88;5570288;32;34665;-66
2022/04/04 12:05:27;;;;;;;4.97;2.80;;;;;;;13.32;28.73;100666.69;5570346;32;34201;-68
2022/04/04 12:08:29;;;;;;;3.87;2.60;;;;;;;13.93;27.84;100658.50;5570240;32;33910;-66
2022/04/04 12:11:38;;;;;;;3.87;2.75;;;;;;;15.30;26.54;100659.56;5570189;32;33991;-67
2022/04/04 12:14:42;;;;;;;3.80;2.80;;;;;;;16.55;24.68;100649.72;5570153;32;34030;-67
2022/04/04 12:17:48;;;;;;;6.07;2.90;;;;;;;16.72;24.15;100643.00;5569943;32;34573;-66
2022/04/04 12:20:53;;;;;;;4.75;2.90;;;;;;;16.15;25.47;100638.81;5569928;32;33984;-68
2022/04/04 12:27:22;;;;;;;5.78;2.97;;;;;;;11.70;31.68;100638.97;5569377;32;33934;-69
2022/04/04 12:30:37;;;;;;;5.55;3.20;;;;;;;11.26;32.88;100627.03;5569991;32;34088;-67
2022/04/04 12:33:41;;;;;;;4.37;3.17;;;;;;;13.70;28.85;100616.91;5556585;32;34590;-66
2022/04/04 12:36:45;;;;;;;4.40;3.20;;;;;;;13.55;29.09;100606.22;5570109;32;34601;-66
2022/04/04 12:39:49;;;;;;;5.03;3.37;;;;;;;12.97;29.32;100609.50;5569952;32;34640;-68
2022/04/04 12:43:04;;;;;;;5.50;3.58;;;;;;;15.33;26.94;100598.50;5556227;32;33966;-66
2022/04/04 12:46:21;;;;;;;4.18;2.85;;;;;;;15.17;27.50;100593.44;5569806;32;34271;-66
2022/04/04 12:49:26;;;;;;;8.20;3.22;;;;;;;16.53;27.07;100585.63;5570269;32;33477;-66
2022/04/04 12:52:59;;;;;;;4.45;2.97;;;;;;;14.85;29.44;100569.91;5570001;32;34112;-66
2022/04/04 12:56:06;;;;;;;5.25;3.20;;;;;;;16.76;27.12;100569.22;5570047;32;34018;-66
2022/04/04 12:59:13;;;;;;;3.17;2.78;;;;;;;16.27;26.36;100569.47;5569951;32;35073;-66
2022/04/04 13:02:17;;;;;;;4.62;3.00;;;;;;;17.14;25.63;100566.78;5569604;32;34020;-67
2022/04/04 13:05:23;;;;;;;4.05;3.12;;;;;;;13.85;30.05;100573.22;5569644;32;34579;-65
2022/04/04 13:08:28;;;;;;;4.53;3.00;;;;;;;12.56;33.10;100563.69;5569530;32;34512;-65
2022/04/04 13:11:48;;;;;;;4.25;2.97;;;;;;;10.66;35.94;100560.13;5569799;32;34626;-67
2022/04/04 13:14:51;;;;;;;5.50;3.40;;;;;;;10.62;37.17;100554.31;5570128;32;34683;-66
2022/04/04 13:17:54;;;;;;;5.37;3.45;;;;;;;10.52;36.66;100545.69;5569562;32;34465;-68
2022/04/04 13:20:57;;;;;;;5.40;3.60;;;;;;;12.20;32.85;100542.09;5569063;32;35227;-65
2022/04/04 13:24:01;;;;;;;4.95;3.17;;;;;;;10.41;37.78;100543.34;5569429;32;34007;-66
2022/04/04 13:27:05;;;;;;;5.87;3.45;;;;;;;10.83;35.00;100543.25;5569330;32;34675;-65
2022/04/04 13:30:09;;;;;;;3.60;2.92;;;;;;;9.32;37.65;100547.66;5569171;31;33983;-65
2022/04/04 13:33:12;;;;;;;5.70;3.78;;;;;;;7.98;40.66;100538.13;5555651;32;34662;-66
2022/04/04 13:36:16;;;;;;;6.62;3.53;;;;;;;7.45;42.69;100540.56;5555383;32;34621;-66
2022/04/04 13:39:19;;;;;;;6.32;3.55;;;;;;;7.23;43.88;100539.91;5567840;32;35476;-67
2022/04/04 13:42:22;;;;;;;5.25;3.00;;;;;;;7.48;43.53;100527.91;5569272;32;33968;-67
2022/04/04 13:45:25;;;;;;;4.72;2.92;;;;;;;7.50;43.86;100520.69;5569099;32;33924;-67
2022/04/04 13:48:28;;;;;;;6.22;2.97;;;;;;;7.29;43.77;100523.53;5568736;32;33947;-68
2022/04/04 13:51:31;;;;;;;6.90;3.30;;;;;;;6.95;44.33;100523.16;5568794;32;34636;-68
2022/04/04 13:54:34;;;;;;;5.53;3.30;;;;;;;6.71;45.17;100504.31;5568710;32;33985;-65
2022/04/04 13:57:37;;;;;;;5.15;3.10;;;;;;;6.93;45.16;100497.91;5568798;32;34125;-65
2022/04/04 14:00:40;;;;;;;5.18;3.05;;;;;;;6.86;45.63;100497.66;5568538;32;34468;-65
2022/04/04 14:03:43;;;;;;;4.22;3.17;;;;;;;7.12;45.00;100499.66;5568768;32;34505;-66
2022/04/04 14:06:46;;;;;;;6.22;3.28;;;;;;;7.02;45.30;100494.41;5568594;32;34666;-67
2022/04/04 14:09:49;;;;;;;5.25;3.60;;;;;;;7.03;45.34;100487.31;5568462;32;35423;-65
2022/04/04 14:12:53;;;;;;;5.87;3.87;;;;;;;6.50;47.50;100488.66;5554812;32;33978;-65
2022/04/04 14:15:56;;;;;;;4.62;3.40;;;;;;;6.49;49.33;100478.22;5567966;32;33943;-67
2022/04/04 14:18:59;;;;;;;5.97;3.60;;;;;;;6.49;48.41;100470.31;5567980;32;34343;-66
2022/04/04 14:22:03;;;;;;;5.75;3.50;;;;;;;6.62;48.24;100477.97;5568263;32;34004;-65
2022/04/04 14:25:06;;;;;;;6.10;4.00;;;;;;;6.81;48.02;100467.41;5568024;32;34626;-65
2022/04/04 14:28:09;;;;;;;5.93;3.85;;;;;;;6.92;47.95;100473.31;5568277;32;33957;-66
2022/04/04 14:31:13;;;;;;;5.57;4.22;;;;;;;6.99;48.05;100468.31;5567635;32;33984;-66
2022/04/04 14:34:19;;;;;;;7.00;4.53;;;;;;;7.10;49.76;100462.06;5554375;32;34601;-65